Terminal Aerodrome Forecast
Issued by NWS Wilmington, NC

Home | Current Version | Previous Version | Text Only | Print | Product List | Glossary On
Versions: 1 2 3 4 5 6 7 8 9 10 11 12 13 14 15 16 17 18 19 20 21 22 23 24
000
FTUS42 KILM 261300 AAA
TAFFLO
TAF AMD
KFLO 261336Z 2614/2712 34013G20KT 6SM -RA SCT006 OVC045
     FM261700 30011KT P6SM BKN020 BKN100
     FM262200 28005KT P6SM FEW050=

USA.gov is the U.S. government's official web portal to all federal, state and local government web resources and services.